Rugby Municipal, ND

12:15 AM CDT on August 20, 2014 (GMT -0500)
Rolla | Change Station
CLOSE
Current Station
Airport
Location: Rolla,
Elevation: 1824 ft
Nearby Weather Stations

Elev 1824 ft 48.88 °N, 99.62 °W | Updated 20 minutes ago

Mostly Cloudy
Mostly Cloudy
59 °F
Feels Like 59 °F
N
4
Wind Variable Wind from SSW

Today
High -- | Low -- °F
--% Chance of Precip.
Yesterday
High -- | Low -- °F
Precip. -- in
6:40 AM 8:44 PM
Waning Crescent, 24% visible
Pressure 29.76 in
Visibility 10.0 miles
Clouds Few 4000 ft
Mostly Cloudy 6000 ft
Dew Point 59 °F
Humidity 100%
Rainfall 0.00 in
Snow Depth Not available.
UV 0 out of 12
Pollen 9.80 out of 12
Air Quality Not available.
Flu Activity Not available.
METAR K06D 200455Z AUTO 20003KT 10SM FEW040 BKN060 15/15 A2976 RMK AO2

More Conditions Fewer Conditions

Pressure 29.76 in
Visibility 10.0 miles
Clouds Few 4000 ft
Mostly Cloudy 6000 ft
Dew Point 59 °F
Humidity 100%
Rainfall 0.00 in
Snow Depth Not available.
UV 0 out of 12
Pollen 9.80 out of 12
Air Quality Not available.
Flu Activity Not available.
METAR K06D 200455Z AUTO 20003KT 10SM FEW040 BKN060 15/15 A2976 RMK AO2

More Conditions Fewer Conditions

10-Day Weather Forecast

Almanac

Astronomy

Aug. 20, 2014 Rise Set
Actual Time 6:40 AM CDT 8:44 PM CDT
Civil Twilight 6:07 AM CDT 9:18 PM CDT
Nautical Twilight 5:25 AM CDT 10:00 PM CDT
Astronomical Twilight 4:37 AM CDT 10:47 PM CDT
Moon 2:13 AM CDT 5:39 PM CDT
Length of Visible Light 15h 11m
Length of Day
14h 03m
Tomorrow will be 3m 17s shorter.
Waning Crescent, 24% of the Moon is Illuminated
Today
Waning Crescent
Aug 25
New
Sep 2
First Quarter
Sep 8
Full
Sep 15
Last Quarter

Today's Extremes

State Highs State Lows

Community

WunderPhotos

Upload Photos

1,745,592 photos uploaded!

Nearby

Snow Depth

Station Depth Elevation
No new snow has been reported.

Earthquake Activity

City Distance Mag. Time & Date
No recent earthquake activity has been reported nearby.
Minimum magnitude displayed is 2.5.

Coastal Water Temperatures

Place Temperature
No Stations Reporting

Nearby Weather Stations